createdAt,value
2022-10-13T00:00:49.561Z,99.90
2022-10-13T00:03:17.626Z,99.90
2022-10-13T00:05:49.245Z,99.90
2022-10-13T00:08:20.044Z,99.90
2022-10-13T00:10:50.482Z,99.90
2022-10-13T00:13:19.154Z,99.90
2022-10-13T00:15:48.136Z,99.90
2022-10-13T00:18:16.633Z,99.90
2022-10-13T00:20:47.826Z,99.90
2022-10-13T00:23:16.107Z,99.90
2022-10-13T00:25:51.903Z,99.90
2022-10-13T00:28:20.620Z,99.90
2022-10-13T00:30:48.648Z,99.90
2022-10-13T00:33:15.707Z,99.90
2022-10-13T00:35:47.507Z,99.90
2022-10-13T00:38:20.526Z,99.90
2022-10-13T00:40:50.318Z,99.90
2022-10-13T00:43:47.568Z,99.90
2022-10-13T00:46:15.650Z,99.90
2022-10-13T00:48:45.171Z,99.90
2022-10-13T00:51:16.197Z,99.90
2022-10-13T00:53:45.267Z,99.90
2022-10-13T00:56:14.149Z,99.90
2022-10-13T00:58:42.258Z,99.90
2022-10-13T01:01:09.240Z,99.90
2022-10-13T01:03:37.697Z,99.90
2022-10-13T01:06:08.010Z,99.90
2022-10-13T01:08:35.436Z,99.90
2022-10-13T01:11:48.237Z,99.90
2022-10-13T01:14:29.764Z,99.90
2022-10-13T01:17:15.126Z,99.90
2022-10-13T01:20:00.812Z,99.90
2022-10-13T01:23:04.447Z,99.90
2022-10-13T01:26:10.038Z,99.90
2022-10-13T01:29:13.260Z,99.90
2022-10-13T01:32:07.750Z,99.90
2022-10-13T01:34:40.420Z,99.90
2022-10-13T01:37:18.942Z,99.90
2022-10-13T01:40:12.352Z,99.90
2022-10-13T01:43:12.989Z,99.90
2022-10-13T01:46:14.438Z,99.90
2022-10-13T01:48:45.483Z,99.90
2022-10-13T01:51:19.192Z,99.90
2022-10-13T01:53:47.706Z,99.90
2022-10-13T01:56:15.909Z,99.90
2022-10-13T01:58:43.427Z,99.90
2022-10-13T02:01:34.144Z,99.90
2022-10-13T02:04:22.517Z,99.90
2022-10-13T02:07:16.235Z,99.90
2022-10-13T02:10:06.650Z,99.90
2022-10-13T02:13:08.502Z,99.90
2022-10-13T02:15:45.234Z,99.90
2022-10-13T02:18:20.102Z,99.90
2022-10-13T02:20:48.175Z,99.90
2022-10-13T02:23:18.680Z,99.90
2022-10-13T02:25:48.280Z,99.90
2022-10-13T02:28:16.674Z,99.90
2022-10-13T02:30:46.225Z,99.90
2022-10-13T02:33:14.527Z,99.90
2022-10-13T02:35:42.745Z,99.90
2022-10-13T02:38:10.629Z,99.90
2022-10-13T02:40:38.169Z,99.90
2022-10-13T02:43:05.768Z,99.90
2022-10-13T02:45:32.675Z,99.90
2022-10-13T02:47:59.610Z,99.90
2022-10-13T02:50:26.762Z,99.90
2022-10-13T02:52:55.624Z,99.90
2022-10-13T02:55:22.517Z,99.90
2022-10-13T02:57:49.401Z,99.90
2022-10-13T03:00:16.920Z,99.90
2022-10-13T03:02:44.123Z,99.90
2022-10-13T03:05:11.226Z,99.90
2022-10-13T03:07:38.642Z,99.90
2022-10-13T03:10:06.332Z,99.90
2022-10-13T03:12:33.261Z,99.90
2022-10-13T03:15:00.595Z,99.90
2022-10-13T03:17:27.536Z,99.90
2022-10-13T03:19:54.500Z,99.90
2022-10-13T03:22:21.770Z,99.90
2022-10-13T03:24:48.969Z,99.90
2022-10-13T03:27:16.011Z,99.90
2022-10-13T03:29:42.964Z,99.90
2022-10-13T03:32:10.007Z,99.90
2022-10-13T03:34:36.961Z,99.90
2022-10-13T03:37:04.295Z,99.90
2022-10-13T03:39:31.182Z,99.90
2022-10-13T03:41:58.176Z,99.90
2022-10-13T03:44:25.162Z,99.90
2022-10-13T03:46:52.098Z,99.90
2022-10-13T03:49:19.018Z,99.90
2022-10-13T03:51:46.328Z,99.90
2022-10-13T03:54:14.251Z,99.90
2022-10-13T03:56:42.325Z,99.90
2022-10-13T03:59:13.118Z,99.90
2022-10-13T04:01:40.752Z,99.90
2022-10-13T04:04:11.068Z,99.90
2022-10-13T04:06:38.094Z,99.90
2022-10-13T04:09:05.625Z,99.90
2022-10-13T04:11:32.707Z,99.90
2022-10-13T04:13:59.719Z,99.90
2022-10-13T04:16:30.607Z,99.90
2022-10-13T04:19:04.632Z,99.90
2022-10-13T04:21:34.903Z,99.90
2022-10-13T04:24:03.897Z,99.90
2022-10-13T04:26:34.731Z,99.90
2022-10-13T04:29:05.529Z,99.90
2022-10-13T04:31:33.001Z,99.90
2022-10-13T04:33:59.955Z,99.90
2022-10-13T04:36:27.753Z,99.90
2022-10-13T04:38:55.953Z,99.90
2022-10-13T04:41:23.640Z,99.90
2022-10-13T04:43:52.198Z,99.90
2022-10-13T04:46:24.164Z,99.90
2022-10-13T04:48:52.220Z,99.90
2022-10-13T04:51:23.602Z,99.90
2022-10-13T04:53:59.194Z,99.90
2022-10-13T04:56:27.678Z,99.90
2022-10-13T04:58:55.099Z,99.90
2022-10-13T05:01:24.851Z,99.90
2022-10-13T05:04:01.812Z,99.90
2022-10-13T05:06:33.147Z,99.90
2022-10-13T05:09:00.302Z,99.90
2022-10-13T05:11:29.113Z,99.90
2022-10-13T05:13:57.580Z,99.90
2022-10-13T05:16:26.195Z,99.90
2022-10-13T05:18:54.783Z,99.90
2022-10-13T05:21:28.450Z,99.90
2022-10-13T05:23:57.628Z,99.90
2022-10-13T05:26:30.602Z,99.90
2022-10-13T05:29:02.052Z,99.90
2022-10-13T05:31:31.838Z,99.90
2022-10-13T05:33:59.800Z,99.90
2022-10-13T05:36:33.559Z,99.90
2022-10-13T05:39:07.689Z,99.90
2022-10-13T05:41:34.927Z,99.90
2022-10-13T05:44:10.003Z,99.90
2022-10-13T05:46:37.332Z,99.90
2022-10-13T05:49:04.566Z,99.90
2022-10-13T05:51:37.898Z,99.90
2022-10-13T05:54:21.568Z,99.90
2022-10-13T05:57:02.040Z,99.90
2022-10-13T05:59:34.389Z,99.90
2022-10-13T06:02:06.295Z,99.90
2022-10-13T06:04:46.495Z,99.90
2022-10-13T06:07:14.416Z,99.90
2022-10-13T06:09:42.452Z,99.90
2022-10-13T06:12:10.658Z,99.90
2022-10-13T06:14:37.631Z,99.90
2022-10-13T06:17:04.992Z,99.90
2022-10-13T06:19:31.955Z,99.90
2022-10-13T06:22:03.373Z,99.90
2022-10-13T06:24:30.872Z,99.90
2022-10-13T06:26:57.844Z,99.90
2022-10-13T06:29:24.774Z,99.90
2022-10-13T06:31:51.650Z,99.90
2022-10-13T06:34:18.536Z,99.90
2022-10-13T06:36:45.532Z,99.90
2022-10-13T06:39:12.607Z,99.90
2022-10-13T06:41:39.488Z,99.90
2022-10-13T06:44:06.448Z,99.90
2022-10-13T06:46:33.420Z,99.90
2022-10-13T06:49:00.364Z,99.90
2022-10-13T06:51:27.275Z,99.90
2022-10-13T06:53:57.014Z,99.90
2022-10-13T06:56:24.038Z,99.90
2022-10-13T06:58:50.964Z,99.90
2022-10-13T07:01:17.908Z,99.90
2022-10-13T07:03:44.796Z,99.90
2022-10-13T07:06:11.807Z,99.90
2022-10-13T07:08:38.708Z,99.90
2022-10-13T07:11:16.227Z,99.90
2022-10-13T07:13:46.636Z,99.90
2022-10-13T07:16:16.880Z,99.90
2022-10-13T07:18:44.132Z,99.90
2022-10-13T07:21:11.077Z,99.90
2022-10-13T07:23:38.320Z,99.90
2022-10-13T07:26:12.728Z,99.90
2022-10-13T07:28:40.183Z,99.90
2022-10-13T07:31:17.525Z,99.90
2022-10-13T07:33:48.401Z,99.90
2022-10-13T07:36:16.074Z,99.90
2022-10-13T07:38:43.072Z,99.90
2022-10-13T07:41:12.051Z,99.90
2022-10-13T07:43:39.690Z,99.90
2022-10-13T07:46:07.780Z,99.90
2022-10-13T07:48:35.780Z,99.90
2022-10-13T07:51:12.239Z,99.90
2022-10-13T07:53:41.152Z,99.90
2022-10-13T07:56:11.769Z,99.90
2022-10-13T07:58:42.186Z,99.90
2022-10-13T08:01:10.420Z,99.90
2022-10-13T08:06:10.073Z,99.90
2022-10-13T08:08:37.271Z,99.90
2022-10-13T08:11:16.165Z,99.90
2022-10-13T08:13:51.419Z,99.90
2022-10-13T08:16:19.598Z,99.90
2022-10-13T08:18:47.585Z,99.90
2022-10-13T08:21:56.869Z,99.90
2022-10-13T08:24:14.367Z,99.90
2022-10-13T08:26:42.845Z,99.90
2022-10-13T08:29:21.496Z,99.90
2022-10-13T08:31:52.604Z,99.90
2022-10-13T08:34:20.774Z,99.90
2022-10-13T08:36:47.821Z,99.90
2022-10-13T08:39:15.009Z,99.90
2022-10-13T08:41:44.423Z,99.90
2022-10-13T08:47:45.332Z,99.90
2022-10-13T08:50:23.988Z,99.90
2022-10-13T08:53:34.286Z,99.90
2022-10-13T08:56:05.298Z,99.90
2022-10-13T08:58:37.085Z,99.90
2022-10-13T09:01:25.230Z,99.90
2022-10-13T09:04:00.857Z,99.90
2022-10-13T09:06:43.236Z,99.90
2022-10-13T09:09:14.297Z,99.90
2022-10-13T09:11:45.732Z,99.90
2022-10-13T09:14:32.646Z,99.90
2022-10-13T09:17:26.383Z,99.90
2022-10-13T09:20:27.633Z,99.90
2022-10-13T09:23:20.535Z,99.90
2022-10-13T09:25:52.826Z,99.90
2022-10-13T09:28:33.028Z,99.90
2022-10-13T09:31:35.480Z,99.90
2022-10-13T09:34:28.810Z,99.90
2022-10-13T09:37:04.869Z,99.90
2022-10-13T09:39:34.031Z,99.90
2022-10-13T09:42:28.139Z,99.90
2022-10-13T09:45:22.223Z,99.90
2022-10-13T09:48:19.522Z,99.90
2022-10-13T09:50:54.549Z,99.90
2022-10-13T09:53:40.657Z,99.90
2022-10-13T09:56:52.208Z,99.90
2022-10-13T10:00:11.446Z,99.90
2022-10-13T10:03:03.231Z,99.90
2022-10-13T10:05:38.776Z,99.90
2022-10-13T10:08:28.875Z,99.90
2022-10-13T10:11:05.633Z,99.90
2022-10-13T10:13:32.653Z,99.90
2022-10-13T10:16:13.365Z,99.90
2022-10-13T10:18:50.464Z,99.90
2022-10-13T10:21:43.675Z,99.90
2022-10-13T10:24:43.276Z,99.90
2022-10-13T10:27:43.743Z,99.90
2022-10-13T10:30:20.731Z,99.90
2022-10-13T10:33:12.817Z,99.90
2022-10-13T10:35:55.001Z,99.90
2022-10-13T10:38:46.137Z,99.90
2022-10-13T10:41:25.676Z,99.90
2022-10-13T10:44:04.238Z,99.90
2022-10-13T10:46:39.143Z,99.90
2022-10-13T10:49:28.514Z,99.90
2022-10-13T10:51:56.486Z,99.90
2022-10-13T10:54:39.258Z,99.90
2022-10-13T10:57:41.161Z,99.90
2022-10-13T11:00:18.864Z,99.90
2022-10-13T11:03:31.516Z,99.90
2022-10-13T11:06:17.857Z,99.90
2022-10-13T11:08:49.844Z,99.90
2022-10-13T11:11:26.590Z,99.90
2022-10-13T11:14:22.686Z,99.90
2022-10-13T11:16:58.452Z,99.90
2022-10-13T11:19:38.168Z,99.90
2022-10-13T11:22:05.562Z,99.90
2022-10-13T11:24:41.189Z,99.90
2022-10-13T11:27:08.028Z,99.90
2022-10-13T11:29:51.755Z,99.90
2022-10-13T11:32:41.203Z,99.90
2022-10-13T11:35:08.062Z,99.90
2022-10-13T11:38:06.039Z,99.90
2022-10-13T11:40:53.465Z,99.90
2022-10-13T11:43:41.238Z,99.90
2022-10-13T11:46:27.607Z,99.90
2022-10-13T11:49:29.447Z,99.90
2022-10-13T11:52:54.145Z,99.80
2022-10-13T11:55:51.606Z,99.90
2022-10-13T11:58:24.925Z,99.90
2022-10-13T12:01:14.066Z,99.90
2022-10-13T12:03:45.512Z,99.90
2022-10-13T12:06:35.666Z,99.90
2022-10-13T12:09:31.829Z,99.90
2022-10-13T12:12:18.682Z,99.90
2022-10-13T12:14:51.053Z,99.90
2022-10-13T12:17:27.647Z,99.90
2022-10-13T12:20:24.127Z,99.90
2022-10-13T12:22:52.599Z,99.90
2022-10-13T12:25:23.581Z,99.90
2022-10-13T12:27:58.760Z,99.90
2022-10-13T12:30:37.128Z,99.90
2022-10-13T12:33:22.639Z,99.90
2022-10-13T12:35:49.761Z,99.90
2022-10-13T12:38:20.691Z,99.90
2022-10-13T12:40:51.000Z,99.90
2022-10-13T12:43:25.372Z,99.90
2022-10-13T12:45:52.729Z,99.90
2022-10-13T12:48:36.230Z,99.90
2022-10-13T12:51:29.620Z,99.90
2022-10-13T12:53:57.401Z,99.90
2022-10-13T12:56:33.260Z,99.90
2022-10-13T12:59:00.878Z,99.90
2022-10-13T13:01:35.333Z,99.90
2022-10-13T13:04:23.491Z,99.90
2022-10-13T13:06:59.973Z,99.90
2022-10-13T13:09:29.964Z,99.90
2022-10-13T13:12:12.104Z,99.90
2022-10-13T13:14:41.738Z,99.90
2022-10-13T13:17:13.137Z,99.90
2022-10-13T13:19:43.290Z,99.90
2022-10-13T13:22:10.717Z,99.90
2022-10-13T13:24:40.467Z,99.60
2022-10-13T13:27:36.348Z,99.90
2022-10-13T13:30:04.169Z,99.90
2022-10-13T13:32:32.365Z,99.90
2022-10-13T13:34:59.274Z,99.30
2022-10-13T13:37:33.990Z,99.90
2022-10-13T13:40:01.647Z,99.90
2022-10-13T13:42:29.600Z,99.70
2022-10-13T13:44:57.081Z,99.40
2022-10-13T13:47:27.677Z,99.10
2022-10-13T13:49:56.904Z,99.50
2022-10-13T13:52:26.060Z,99.60
2022-10-13T13:54:53.351Z,99.10
2022-10-13T13:57:20.966Z,98.70
2022-10-13T13:59:48.161Z,99.50
2022-10-13T14:02:21.594Z,99.40
2022-10-13T14:04:49.247Z,99.60
2022-10-13T14:07:18.164Z,99.50
2022-10-13T14:09:45.988Z,99.90
2022-10-13T14:12:13.020Z,99.30
2022-10-13T14:14:39.980Z,99.50
2022-10-13T14:17:06.926Z,99.30
2022-10-13T14:19:33.918Z,99.50
2022-10-13T14:22:03.744Z,99.80
2022-10-13T14:24:35.462Z,99.90
2022-10-13T14:27:02.358Z,99.90
2022-10-13T14:29:29.756Z,99.90
2022-10-13T14:31:56.699Z,99.90
2022-10-13T14:34:23.792Z,99.90
2022-10-13T14:36:50.718Z,99.90
2022-10-13T14:39:17.672Z,99.90
2022-10-13T14:41:44.653Z,99.90
2022-10-13T14:44:13.766Z,99.90
2022-10-13T14:46:41.431Z,99.90
2022-10-13T14:49:10.459Z,99.90
2022-10-13T14:51:37.385Z,99.90
2022-10-13T14:54:06.113Z,99.90
2022-10-13T14:56:33.938Z,99.90
2022-10-13T14:59:04.442Z,99.90
2022-10-13T15:01:33.340Z,99.90
2022-10-13T15:04:01.938Z,99.90
2022-10-13T15:06:29.525Z,99.90
2022-10-13T15:08:56.783Z,99.90
2022-10-13T15:11:25.239Z,99.90
2022-10-13T15:13:52.818Z,99.90
2022-10-13T15:16:27.832Z,99.90
2022-10-13T15:18:56.403Z,99.90
2022-10-13T15:21:24.555Z,99.90
2022-10-13T15:23:51.890Z,99.90
2022-10-13T15:26:20.691Z,99.90
2022-10-13T15:28:51.751Z,99.90
2022-10-13T15:31:21.208Z,99.90
2022-10-13T15:33:52.238Z,99.90
2022-10-13T15:36:21.676Z,99.90
2022-10-13T15:38:48.904Z,99.90
2022-10-13T15:41:16.230Z,99.90
2022-10-13T15:43:43.505Z,99.90
2022-10-13T15:46:21.425Z,99.90
2022-10-13T15:48:51.251Z,99.90
2022-10-13T15:51:21.430Z,99.90
2022-10-13T15:53:49.333Z,99.90
2022-10-13T15:56:17.406Z,99.90
2022-10-13T15:58:45.459Z,99.90
2022-10-13T16:01:14.108Z,99.90
2022-10-13T16:03:41.722Z,99.90
2022-10-13T16:06:12.266Z,99.90
2022-10-13T16:08:45.565Z,99.90
2022-10-13T16:11:16.005Z,99.90
2022-10-13T16:13:50.887Z,99.90
2022-10-13T16:16:19.119Z,99.90
2022-10-13T16:18:46.869Z,99.90
2022-10-13T16:21:23.952Z,99.90
2022-10-13T16:23:50.863Z,99.90
2022-10-13T16:26:20.308Z,99.90
2022-10-13T16:28:47.287Z,99.90
2022-10-13T16:31:16.895Z,99.90
2022-10-13T16:33:45.652Z,99.90
2022-10-13T16:36:19.147Z,99.90
2022-10-13T16:38:47.875Z,99.90
2022-10-13T16:41:18.163Z,99.90
2022-10-13T16:43:47.097Z,99.90
2022-10-13T16:46:17.697Z,99.90
2022-10-13T16:48:46.222Z,99.90
2022-10-13T16:51:22.478Z,99.90
2022-10-13T16:54:01.181Z,99.90
2022-10-13T16:56:31.119Z,99.90
2022-10-13T16:59:01.594Z,99.90
2022-10-13T17:01:30.748Z,99.90
2022-10-13T17:03:58.303Z,99.90
2022-10-13T17:06:28.916Z,99.90
2022-10-13T17:08:58.860Z,99.90
2022-10-13T17:11:30.094Z,99.90
2022-10-13T17:13:59.472Z,99.90
2022-10-13T17:16:27.527Z,99.90
2022-10-13T17:18:55.173Z,99.90
2022-10-13T17:21:22.458Z,99.90
2022-10-13T17:23:49.881Z,99.90
2022-10-13T17:26:18.999Z,99.90
2022-10-13T17:28:46.077Z,99.90
2022-10-13T17:31:23.894Z,99.90
2022-10-13T17:33:52.552Z,99.90
2022-10-13T17:36:34.312Z,99.90
2022-10-13T17:39:08.841Z,99.90
2022-10-13T17:41:36.097Z,99.90
2022-10-13T17:44:03.479Z,99.90
2022-10-13T17:46:37.441Z,99.90
2022-10-13T17:49:06.942Z,99.90
2022-10-13T17:51:34.051Z,99.90
2022-10-13T17:54:01.135Z,99.90
2022-10-13T17:56:29.106Z,99.90
2022-10-13T17:58:56.708Z,99.90
2022-10-13T18:01:28.519Z,99.90
2022-10-13T18:04:02.916Z,99.90
2022-10-13T18:06:38.580Z,99.90
2022-10-13T18:09:16.139Z,99.90
2022-10-13T18:11:49.888Z,99.90
2022-10-13T18:14:23.802Z,99.90
2022-10-13T18:16:52.393Z,99.90
2022-10-13T18:19:20.604Z,99.90
2022-10-13T18:21:47.798Z,99.90
2022-10-13T18:24:14.842Z,99.90
2022-10-13T18:26:41.944Z,99.90
2022-10-13T18:29:11.367Z,99.90
2022-10-13T18:31:40.550Z,99.90
2022-10-13T18:34:15.428Z,99.90
2022-10-13T18:36:48.994Z,99.90
2022-10-13T18:39:23.153Z,99.90
2022-10-13T18:41:52.124Z,99.90
2022-10-13T18:44:21.383Z,99.90
2022-10-13T18:46:53.798Z,99.90
2022-10-13T18:49:23.850Z,99.90
2022-10-13T18:51:51.931Z,99.90
2022-10-13T18:54:19.000Z,99.90
2022-10-13T18:56:46.233Z,99.90
2022-10-13T18:59:13.152Z,99.90
2022-10-13T19:01:40.935Z,99.90
2022-10-13T19:04:08.715Z,99.90
2022-10-13T19:06:35.747Z,99.90
2022-10-13T19:09:13.318Z,99.90
2022-10-13T19:11:41.515Z,99.90
2022-10-13T19:14:12.718Z,99.90
2022-10-13T19:16:43.556Z,99.90
2022-10-13T19:19:11.991Z,99.90
2022-10-13T19:21:39.648Z,99.90
2022-10-13T19:24:07.895Z,99.90
2022-10-13T19:26:36.406Z,99.90
2022-10-13T19:29:11.615Z,99.90
2022-10-13T19:31:43.200Z,99.90
2022-10-13T19:34:13.196Z,99.90
2022-10-13T19:36:46.319Z,99.90
2022-10-13T19:39:22.006Z,99.90
2022-10-13T19:41:51.027Z,99.90
2022-10-13T19:44:19.982Z,99.90
2022-10-13T19:46:48.357Z,99.90
2022-10-13T19:49:19.143Z,99.90
2022-10-13T19:51:47.270Z,99.90
2022-10-13T19:54:14.807Z,99.90
2022-10-13T19:56:41.878Z,99.90
2022-10-13T19:59:09.044Z,99.90
2022-10-13T20:01:39.997Z,99.90
2022-10-13T20:04:10.772Z,99.90
2022-10-13T20:06:38.586Z,99.90
2022-10-13T20:09:06.459Z,99.90
2022-10-13T20:11:33.658Z,99.90
2022-10-13T20:14:00.626Z,99.90
2022-10-13T20:16:27.668Z,99.90
2022-10-13T20:19:00.221Z,99.90
2022-10-13T20:21:29.626Z,99.90
2022-10-13T20:23:57.583Z,99.90
2022-10-13T20:26:26.084Z,99.90
2022-10-13T20:28:54.674Z,99.90
2022-10-13T20:31:23.281Z,99.90
2022-10-13T20:33:58.678Z,99.90
2022-10-13T20:36:27.809Z,99.90
2022-10-13T20:38:55.436Z,99.90
2022-10-13T20:41:26.380Z,99.90
2022-10-13T20:43:57.014Z,99.90
2022-10-13T20:46:25.528Z,99.90
2022-10-13T20:49:11.341Z,99.90
2022-10-13T20:51:40.092Z,99.90
2022-10-13T20:54:07.753Z,99.90
2022-10-13T20:56:34.754Z,99.90
2022-10-13T20:59:08.185Z,99.90
2022-10-13T21:01:37.010Z,99.90
2022-10-13T21:04:04.534Z,99.90
2022-10-13T21:06:31.528Z,99.90
2022-10-13T21:08:58.540Z,99.90
2022-10-13T21:11:25.965Z,99.90
2022-10-13T21:13:53.263Z,99.90
2022-10-13T21:16:27.053Z,99.90
2022-10-13T21:18:56.083Z,99.90
2022-10-13T21:21:27.347Z,99.90
2022-10-13T21:24:00.531Z,99.90
2022-10-13T21:26:29.890Z,99.90
2022-10-13T21:28:57.753Z,99.90
2022-10-13T21:31:26.046Z,99.90
2022-10-13T21:33:54.441Z,99.90
2022-10-13T21:36:28.806Z,99.90
2022-10-13T21:39:02.661Z,99.90
2022-10-13T21:41:30.218Z,99.90
2022-10-13T21:43:57.556Z,99.90
2022-10-13T21:46:28.317Z,99.90
2022-10-13T21:48:58.607Z,99.90
2022-10-13T21:51:38.100Z,99.90
2022-10-13T21:54:12.720Z,99.90
2022-10-13T21:56:41.730Z,99.90
2022-10-13T21:59:12.541Z,99.90
2022-10-13T22:01:40.074Z,99.90
2022-10-13T22:04:07.590Z,99.90
2022-10-13T22:06:34.696Z,99.90
2022-10-13T22:09:05.191Z,99.90
2022-10-13T22:11:35.217Z,99.90
2022-10-13T22:14:02.284Z,99.90
2022-10-13T22:16:34.458Z,99.90
2022-10-13T22:19:02.028Z,99.90
2022-10-13T22:21:35.380Z,99.90
2022-10-13T22:24:06.331Z,99.90
2022-10-13T22:26:36.482Z,99.90
2022-10-13T22:29:06.243Z,99.90
2022-10-13T22:31:34.146Z,99.90
2022-10-13T22:34:02.598Z,99.90
2022-10-13T22:36:33.178Z,99.90
2022-10-13T22:39:02.984Z,99.90
2022-10-13T22:41:31.859Z,99.90
2022-10-13T22:43:59.922Z,99.90
2022-10-13T22:46:31.528Z,99.90
2022-10-13T22:48:59.020Z,99.90
2022-10-13T22:51:28.946Z,99.90
2022-10-13T22:53:57.424Z,99.90
2022-10-13T22:56:30.767Z,99.90
2022-10-13T22:59:08.464Z,99.90
2022-10-13T23:01:36.629Z,99.90
2022-10-13T23:04:05.349Z,99.90
2022-10-13T23:06:35.044Z,99.90
2022-10-13T23:09:09.406Z,99.90
2022-10-13T23:11:36.831Z,99.90
2022-10-13T23:14:04.096Z,99.90
2022-10-13T23:16:31.819Z,99.90
2022-10-13T23:18:58.747Z,99.90
2022-10-13T23:21:28.845Z,99.90
2022-10-13T23:24:02.116Z,99.90
2022-10-13T23:26:29.516Z,99.90
2022-10-13T23:28:58.033Z,99.90
2022-10-13T23:31:27.392Z,99.90
2022-10-13T23:33:55.232Z,99.90
2022-10-13T23:36:26.335Z,99.90
2022-10-13T23:38:58.467Z,99.90
2022-10-13T23:41:26.744Z,99.90
2022-10-13T23:43:53.894Z,99.90
2022-10-13T23:46:21.424Z,99.90
2022-10-13T23:48:48.452Z,99.90
2022-10-13T23:51:20.067Z,99.90
2022-10-13T23:53:47.445Z,99.90
2022-10-13T23:56:14.960Z,99.90
2022-10-13T23:58:44.501Z,99.90
